createdAt,value
2022-09-25T00:01:22.120Z,13.70
2022-09-25T00:03:48.871Z,13.70
2022-09-25T00:06:19.617Z,13.60
2022-09-25T00:08:46.983Z,13.50
2022-09-25T00:11:17.080Z,13.70
2022-09-25T00:13:44.647Z,13.60
2022-09-25T00:16:16.839Z,13.50
2022-09-25T00:19:02.775Z,13.50
2022-09-25T00:21:33.754Z,13.50
2022-09-25T00:24:03.669Z,13.50
2022-09-25T00:26:34.139Z,13.50
2022-09-25T00:29:01.337Z,13.50
2022-09-25T00:31:28.836Z,13.50
2022-09-25T00:34:00.220Z,13.50
2022-09-25T00:36:27.806Z,13.50
2022-09-25T00:38:54.608Z,13.50
2022-09-25T00:41:23.476Z,13.50
2022-09-25T00:43:53.100Z,13.40
2022-09-25T00:46:26.032Z,13.40
2022-09-25T00:49:11.642Z,13.50
2022-09-25T00:51:47.564Z,13.40
2022-09-25T00:54:21.179Z,13.40
2022-09-25T00:56:50.353Z,13.30
2022-09-25T00:59:25.090Z,13.40
2022-09-25T01:01:52.402Z,13.40
2022-09-25T01:04:19.952Z,13.30
2022-09-25T01:06:46.772Z,13.50
2022-09-25T01:09:13.486Z,13.40
2022-09-25T01:11:40.549Z,13.40
2022-09-25T01:14:08.719Z,13.50
2022-09-25T01:16:49.496Z,13.40
2022-09-25T01:19:48.042Z,13.40
2022-09-25T01:22:36.828Z,13.40
2022-09-25T01:25:27.672Z,13.40
2022-09-25T01:28:31.804Z,13.30
2022-09-25T01:31:04.526Z,13.30
2022-09-25T01:33:58.046Z,13.30
2022-09-25T01:36:30.190Z,13.40
2022-09-25T01:39:17.904Z,13.30
2022-09-25T01:42:08.869Z,13.20
2022-09-25T01:44:46.286Z,13.30
2022-09-25T01:47:24.048Z,13.30
2022-09-25T01:49:59.792Z,13.30
2022-09-25T01:52:33.224Z,13.30
2022-09-25T01:55:09.590Z,13.30
2022-09-25T01:57:59.269Z,13.40
2022-09-25T02:00:27.013Z,13.40
2022-09-25T02:03:05.875Z,13.30
2022-09-25T02:05:40.746Z,13.20
2022-09-25T02:08:23.576Z,13.30
2022-09-25T02:11:00.655Z,13.20
2022-09-25T02:13:37.117Z,13.10
2022-09-25T02:16:11.802Z,13.30
2022-09-25T02:18:57.460Z,13.30
2022-09-25T02:21:39.235Z,13.30
2022-09-25T02:24:14.118Z,13.30
2022-09-25T02:26:41.100Z,13.40
2022-09-25T02:29:08.791Z,13.40
2022-09-25T02:31:43.007Z,13.30
2022-09-25T02:34:14.955Z,13.30
2022-09-25T02:36:43.781Z,13.30
2022-09-25T02:39:13.851Z,13.30
2022-09-25T02:42:12.093Z,13.20
2022-09-25T02:44:59.026Z,13.20
2022-09-25T02:47:29.060Z,13.20
2022-09-25T02:50:06.912Z,13.20
2022-09-25T02:52:48.615Z,13.10
2022-09-25T02:55:24.178Z,13.00
2022-09-25T02:58:01.208Z,13.10
2022-09-25T03:00:31.195Z,13.10
2022-09-25T03:03:00.092Z,13.00
2022-09-25T03:05:27.525Z,13.00
2022-09-25T03:08:13.219Z,13.10
2022-09-25T03:10:40.151Z,13.00
2022-09-25T03:13:23.140Z,13.00
2022-09-25T03:15:59.104Z,13.00
2022-09-25T03:18:27.187Z,13.00
2022-09-25T03:20:54.180Z,12.90
2022-09-25T03:23:21.259Z,12.80
2022-09-25T03:25:50.422Z,12.80
2022-09-25T03:28:17.428Z,12.90
2022-09-25T03:30:46.492Z,12.90
2022-09-25T03:33:13.648Z,12.80
2022-09-25T03:35:40.758Z,12.80
2022-09-25T03:38:08.721Z,12.80
2022-09-25T03:40:35.456Z,12.70
2022-09-25T03:45:29.082Z,13.00
2022-09-25T03:47:55.775Z,12.90
2022-09-25T03:50:22.438Z,12.80
2022-09-25T03:52:49.132Z,12.70
2022-09-25T03:55:20.074Z,12.70
2022-09-25T03:57:46.777Z,12.60
2022-09-25T04:00:14.750Z,12.70
2022-09-25T04:02:41.557Z,12.80
2022-09-25T04:05:12.273Z,12.90
2022-09-25T04:07:38.991Z,12.80
2022-09-25T04:10:06.209Z,12.70
2022-09-25T04:12:33.308Z,12.80
2022-09-25T04:14:59.980Z,12.60
2022-09-25T04:17:26.703Z,12.60
2022-09-25T04:19:53.379Z,12.60
2022-09-25T04:22:20.075Z,12.60
2022-09-25T04:24:50.007Z,12.60
2022-09-25T04:27:22.664Z,12.60
2022-09-25T04:29:50.180Z,12.60
2022-09-25T04:32:35.946Z,12.60
2022-09-25T04:35:03.109Z,12.50
2022-09-25T04:37:29.950Z,12.60
2022-09-25T04:39:57.877Z,12.60
2022-09-25T04:42:25.303Z,12.60
2022-09-25T04:44:56.220Z,12.50
2022-09-25T04:47:24.691Z,12.50
2022-09-25T04:49:52.466Z,12.50
2022-09-25T04:52:20.516Z,12.50
2022-09-25T04:54:47.794Z,12.40
2022-09-25T04:57:32.943Z,12.40
2022-09-25T05:00:07.266Z,12.40
2022-09-25T05:02:34.407Z,12.40
2022-09-25T05:05:01.324Z,12.40
2022-09-25T05:07:27.984Z,12.30
2022-09-25T05:09:54.855Z,12.30
2022-09-25T05:12:21.910Z,12.30
2022-09-25T05:14:48.611Z,12.30
2022-09-25T05:17:18.101Z,12.30
2022-09-25T05:19:44.821Z,12.20
2022-09-25T05:22:11.518Z,12.20
2022-09-25T05:24:38.551Z,12.20
2022-09-25T05:27:05.468Z,12.20
2022-09-25T05:29:32.218Z,12.20
2022-09-25T05:31:59.736Z,12.10
2022-09-25T05:34:26.668Z,12.10
2022-09-25T05:36:53.340Z,12.10
2022-09-25T05:39:19.991Z,12.10
2022-09-25T05:41:46.701Z,12.00
2022-09-25T05:44:14.825Z,12.10
2022-09-25T05:46:42.194Z,12.10
2022-09-25T05:49:08.994Z,12.00
2022-09-25T05:51:35.729Z,12.00
2022-09-25T05:54:02.471Z,12.00
2022-09-25T05:56:29.250Z,12.00
2022-09-25T05:58:58.601Z,11.90
2022-09-25T06:01:26.127Z,12.00
2022-09-25T06:03:52.932Z,11.90
2022-09-25T06:06:22.494Z,11.80
2022-09-25T06:08:54.654Z,11.80
2022-09-25T06:11:24.141Z,11.90
2022-09-25T06:13:54.498Z,11.90
2022-09-25T06:16:21.612Z,11.90
2022-09-25T06:18:48.549Z,11.90
2022-09-25T06:21:18.036Z,11.80
2022-09-25T06:23:48.661Z,11.80
2022-09-25T06:26:18.159Z,11.80
2022-09-25T06:28:49.852Z,11.80
2022-09-25T06:31:16.727Z,11.70
2022-09-25T06:33:43.932Z,11.80
2022-09-25T06:36:13.104Z,11.90
2022-09-25T06:38:41.182Z,11.80
2022-09-25T06:41:07.975Z,11.80
2022-09-25T06:43:34.761Z,11.90
2022-09-25T06:46:03.379Z,11.90
2022-09-25T06:48:30.800Z,11.90
2022-09-25T06:51:01.500Z,11.90
2022-09-25T06:53:28.294Z,11.80
2022-09-25T06:55:58.888Z,11.80
2022-09-25T06:58:26.895Z,11.80
2022-09-25T07:00:55.726Z,11.90
2022-09-25T07:03:41.955Z,12.00
2022-09-25T07:06:10.929Z,11.90
2022-09-25T07:08:37.998Z,11.90
2022-09-25T07:11:05.504Z,11.90
2022-09-25T07:13:35.275Z,12.00
2022-09-25T07:16:08.106Z,12.00
2022-09-25T07:18:35.086Z,12.00
2022-09-25T07:21:27.761Z,12.00
2022-09-25T07:23:54.869Z,12.00
2022-09-25T07:26:24.057Z,12.10
2022-09-25T07:29:02.441Z,12.20
2022-09-25T07:31:32.087Z,12.10
2022-09-25T07:34:04.028Z,12.20
2022-09-25T07:36:30.814Z,12.20
2022-09-25T07:38:57.530Z,12.30
2022-09-25T07:41:24.316Z,12.30
2022-09-25T07:46:46.102Z,12.40
2022-09-25T07:49:13.663Z,12.40
2022-09-25T07:51:40.468Z,12.50
2022-09-25T07:54:08.129Z,12.50
2022-09-25T07:56:34.863Z,12.60
2022-09-25T07:59:01.665Z,12.60
2022-09-25T08:01:28.480Z,12.60
2022-09-25T08:03:55.199Z,12.70
2022-09-25T08:06:21.939Z,12.70
2022-09-25T08:08:48.650Z,12.70
2022-09-25T08:11:17.893Z,12.80
2022-09-25T08:13:49.426Z,12.80
2022-09-25T08:16:20.641Z,12.90
2022-09-25T08:18:47.980Z,12.90
2022-09-25T08:21:17.822Z,13.00
2022-09-25T08:23:49.450Z,13.00
2022-09-25T08:26:17.375Z,13.00
2022-09-25T08:28:44.830Z,13.10
2022-09-25T08:31:16.836Z,13.20
2022-09-25T08:33:50.295Z,13.20
2022-09-25T08:36:17.798Z,13.30
2022-09-25T08:42:38.194Z,13.40
2022-09-25T08:45:59.497Z,13.40
2022-09-25T08:50:06.335Z,13.40
2022-09-25T08:52:25.265Z,13.50
2022-09-25T08:58:04.096Z,13.60
2022-09-25T09:00:32.278Z,13.70
2022-09-25T09:03:22.350Z,13.80
2022-09-25T09:09:19.470Z,13.80
2022-09-25T09:12:17.006Z,13.90
2022-09-25T09:14:56.392Z,14.00
2022-09-25T09:17:46.060Z,14.20
2022-09-25T09:20:49.072Z,14.40
2022-09-25T09:23:22.244Z,14.60
2022-09-25T09:25:57.405Z,14.70
2022-09-25T09:28:42.821Z,14.60
2022-09-25T09:31:18.635Z,14.60
2022-09-25T09:34:00.304Z,14.70
2022-09-25T09:36:28.107Z,14.90
2022-09-25T09:39:18.155Z,14.80
2022-09-25T09:42:03.562Z,14.80
2022-09-25T09:45:21.068Z,15.00
2022-09-25T09:48:08.886Z,15.00
2022-09-25T09:50:49.863Z,15.10
2022-09-25T09:53:24.350Z,15.10
2022-09-25T09:55:54.020Z,15.00
2022-09-25T09:58:33.217Z,15.00
2022-09-25T10:01:22.180Z,15.10
2022-09-25T10:04:16.886Z,15.30
2022-09-25T10:07:08.297Z,15.30
2022-09-25T10:09:37.159Z,15.20
2022-09-25T10:12:12.209Z,15.40
2022-09-25T10:14:45.921Z,15.50
2022-09-25T10:17:13.006Z,15.60
2022-09-25T10:20:03.717Z,15.60
2022-09-25T10:22:42.540Z,15.90
2022-09-25T10:25:09.318Z,16.40
2022-09-25T10:27:43.523Z,16.30
2022-09-25T10:33:01.975Z,17.10
2022-09-25T10:35:37.994Z,17.50
2022-09-25T10:38:06.975Z,17.80
2022-09-25T10:40:39.031Z,17.70
2022-09-25T10:43:20.426Z,17.40
2022-09-25T10:45:54.117Z,17.00
2022-09-25T10:48:47.940Z,17.10
2022-09-25T10:51:18.456Z,16.80
2022-09-25T10:53:46.802Z,16.90
2022-09-25T10:56:35.902Z,16.40
2022-09-25T10:59:14.631Z,16.40
2022-09-25T11:02:52.214Z,16.20
2022-09-25T11:05:31.033Z,15.90
2022-09-25T11:08:06.581Z,16.00
2022-09-25T11:11:00.519Z,16.00
2022-09-25T11:13:30.058Z,16.40
2022-09-25T11:16:01.816Z,17.50
2022-09-25T11:18:49.802Z,18.60
2022-09-25T11:21:22.946Z,18.60
2022-09-25T11:23:49.572Z,17.50
2022-09-25T11:26:24.551Z,17.40
2022-09-25T11:28:52.172Z,17.30
2022-09-25T11:31:29.202Z,17.00
2022-09-25T11:34:26.873Z,16.50
2022-09-25T11:37:05.800Z,16.70
2022-09-25T11:40:05.180Z,16.50
2022-09-25T14:08:48.714Z,16.70
2022-09-25T14:11:19.756Z,22.20
2022-09-25T14:13:51.202Z,20.70
2022-09-25T15:05:27.214Z,20.40
2022-09-25T15:07:55.985Z,18.10
2022-09-25T15:10:25.544Z,18.30
2022-09-25T15:12:53.299Z,18.60
2022-09-25T15:15:21.617Z,18.50
2022-09-25T15:17:58.855Z,18.60
2022-09-25T15:20:32.783Z,18.50
2022-09-25T15:23:07.651Z,18.40
2022-09-25T15:25:47.461Z,18.70
2022-09-25T15:28:19.774Z,18.70
2022-09-25T15:30:58.582Z,18.80
2022-09-25T15:33:26.801Z,18.60
2022-09-25T15:35:58.412Z,18.70
2022-09-25T15:38:33.295Z,18.90
2022-09-25T15:41:02.871Z,18.90
2022-09-25T15:43:32.415Z,18.50
2022-09-25T15:46:34.006Z,18.00
2022-09-25T15:49:01.076Z,17.70
2022-09-25T15:51:30.588Z,17.40
2022-09-25T15:53:59.096Z,17.30
2022-09-25T15:56:30.407Z,17.10
2022-09-25T15:59:12.764Z,17.10
2022-09-25T16:02:01.152Z,17.00
2022-09-25T16:04:40.160Z,16.90
2022-09-25T16:07:28.340Z,16.90
2022-09-25T16:10:25.163Z,16.90
2022-09-25T16:12:52.193Z,16.90
2022-09-25T16:15:27.788Z,16.70
2022-09-25T16:17:55.531Z,16.60
2022-09-25T16:20:25.334Z,16.50
2022-09-25T16:22:58.353Z,16.60
2022-09-25T16:25:37.872Z,16.50
2022-09-25T16:28:23.984Z,16.50
2022-09-25T16:31:04.586Z,16.40
2022-09-25T16:33:42.373Z,16.50
2022-09-25T16:36:17.677Z,16.40
2022-09-25T16:39:11.087Z,16.40
2022-09-25T16:41:42.728Z,16.30
2022-09-25T16:44:20.515Z,16.30
2022-09-25T16:46:53.277Z,16.20
2022-09-25T16:49:20.144Z,16.20
2022-09-25T16:51:48.687Z,16.20
2022-09-25T16:54:18.399Z,16.20
2022-09-25T16:56:48.212Z,16.10
2022-09-25T16:59:24.476Z,16.10
2022-09-25T17:01:53.678Z,16.10
2022-09-25T17:04:28.795Z,16.00
2022-09-25T17:07:00.049Z,16.00
2022-09-25T17:09:28.982Z,16.00
2022-09-25T17:12:02.771Z,16.00
2022-09-25T21:44:31.673Z,15.80
2022-09-25T21:46:58.708Z,12.70
2022-09-25T21:49:25.670Z,12.50
2022-09-25T22:01:44.639Z,12.40
2022-09-25T22:04:13.884Z,12.30
2022-09-25T22:06:47.237Z,12.20
2022-09-25T22:09:20.651Z,12.30
2022-09-25T22:11:48.205Z,12.20
2022-09-25T22:14:17.324Z,12.20
2022-09-25T22:16:47.131Z,12.20
2022-09-25T22:19:16.222Z,12.10
2022-09-25T22:21:44.802Z,12.00
2022-09-25T22:38:58.960Z,11.90
2022-09-25T22:43:54.531Z,11.70
2022-09-25T22:46:23.127Z,11.60
2022-09-25T22:48:51.137Z,11.50
2022-09-25T22:51:20.839Z,11.50
2022-09-25T22:53:48.922Z,11.50
2022-09-25T22:56:23.575Z,11.40
2022-09-25T22:58:56.030Z,11.40
2022-09-25T23:01:32.898Z,11.40
2022-09-25T23:04:02.144Z,11.40
2022-09-25T23:06:30.989Z,11.40
2022-09-25T23:09:00.246Z,11.40
2022-09-25T23:11:27.958Z,11.40
2022-09-25T23:14:03.812Z,11.50
2022-09-25T23:16:32.989Z,11.60
2022-09-25T23:19:00.885Z,11.50
2022-09-25T23:21:29.643Z,11.50
2022-09-25T23:23:57.842Z,11.50
2022-09-25T23:26:26.623Z,11.50
2022-09-25T23:28:53.774Z,11.50
2022-09-25T23:31:21.285Z,11.50
2022-09-25T23:33:48.618Z,11.50
2022-09-25T23:36:19.237Z,11.40
2022-09-25T23:38:47.959Z,11.50
2022-09-25T23:41:14.977Z,11.50
2022-09-25T23:43:42.172Z,11.40
2022-09-25T23:46:09.070Z,11.50
2022-09-25T23:48:35.896Z,11.50
2022-09-25T23:51:02.771Z,11.50
2022-09-25T23:53:29.803Z,11.50
2022-09-25T23:55:59.425Z,11.40
2022-09-25T23:58:26.242Z,11.50
